Time;durP1;ratioP1;P1;durP2;ratioP2;P2;SDS_P1;SDS_P2;PMS_P1;PMS_P2;Temp;Humidity;BMP_temperature;BMP_pressure;BME280_temperature;BME280_humidity;BME280_pressure;Samples;Min_cycle;Max_cycle;Signal;HPM_P1;HPM_P2
2022/01/20 00:01:17;;;;;;;14.30;2.63;;;4.30;99.90;;;;;;5071920;28;20689;-74
2022/01/20 00:03:45;;;;;;;17.43;3.07;;;4.50;99.90;;;;;;5103501;28;20652;-74
2022/01/20 00:07:02;;;;;;;17.43;3.10;;;4.50;99.90;;;;;;5071886;28;20237;-74
2022/01/20 00:09:29;;;;;;;14.80;2.40;;;4.50;99.90;;;;;;5071715;28;20198;-74
2022/01/20 00:23:40;;;;;;;19.00;3.00;;;4.30;99.90;;;;;;5035547;28;20195;-73
2022/01/20 00:26:09;;;;;;;14.53;2.40;;;4.30;99.90;;;;;;5091196;28;20527;-74
2022/01/20 00:28:43;;;;;;;18.90;2.90;;;4.30;99.90;;;;;;5091138;28;20196;-74
2022/01/20 00:31:30;;;;;;;20.83;3.70;;;4.20;99.90;;;;;;5091722;28;20220;-74
2022/01/20 00:34:10;;;;;;;19.50;3.03;;;4.30;99.90;;;;;;5091766;28;20551;-74
2022/01/20 00:39:22;;;;;;;14.10;2.27;;;4.20;99.90;;;;;;5089779;28;20662;-74
2022/01/20 00:41:49;;;;;;;20.53;2.57;;;4.30;99.90;;;;;;5096264;28;20205;-74
2022/01/20 00:44:18;;;;;;;22.23;3.17;;;4.20;99.90;;;;;;5084154;28;20682;-74
2022/01/20 00:46:46;;;;;;;16.13;2.70;;;4.20;99.90;;;;;;5079910;28;20202;-74
2022/01/20 00:49:13;;;;;;;18.87;3.30;;;4.10;99.90;;;;;;5084220;28;20598;-74
2022/01/20 00:51:41;;;;;;;24.83;3.80;;;4.20;99.90;;;;;;5070873;28;20631;-74
2022/01/20 00:54:08;;;;;;;16.27;2.83;;;4.10;99.90;;;;;;5077319;28;20225;-74
2022/01/20 00:56:35;;;;;;;19.30;3.70;;;4.10;99.90;;;;;;5085955;28;20250;-74
2022/01/20 00:59:03;;;;;;;19.77;3.70;;;4.10;99.90;;;;;;5091317;28;20676;-74
2022/01/20 01:01:31;;;;;;;11.53;3.13;;;4.10;99.90;;;;;;5086140;28;20201;-74
2022/01/20 01:03:58;;;;;;;21.23;4.07;;;4.10;99.90;;;;;;5090372;28;20209;-73
2022/01/20 01:06:40;;;;;;;17.97;3.50;;;4.10;99.90;;;;;;5079185;28;20201;-74
2022/01/20 01:09:07;;;;;;;18.70;4.13;;;4.10;99.90;;;;;;5110217;28;20280;-74
2022/01/20 01:11:36;;;;;;;16.60;2.90;;;4.00;99.90;;;;;;5084578;28;20239;-74
2022/01/20 01:14:04;;;;;;;22.37;3.80;;;4.00;99.90;;;;;;5077255;28;20206;-74
2022/01/20 01:19:59;;;;;;;20.50;3.60;;;3.90;99.90;;;;;;5089325;28;20213;-74
2022/01/20 01:22:21;;;;;;;19.67;3.77;;;4.00;99.90;;;;;;5085296;28;20308;-74
2022/01/20 01:24:52;;;;;;;18.30;3.60;;;4.00;99.90;;;;;;5078256;28;20197;-74
2022/01/20 01:27:21;;;;;;;18.23;3.10;;;4.00;99.90;;;;;;5094906;28;20208;-74
2022/01/20 01:30:05;;;;;;;25.30;4.37;;;4.00;99.90;;;;;;5093067;28;20193;-74
2022/01/20 01:32:44;;;;;;;19.77;3.63;;;4.00;99.90;;;;;;5097467;28;20194;-74
2022/01/20 01:35:12;;;;;;;14.20;2.67;;;4.00;99.90;;;;;;5090393;28;20209;-74
2022/01/20 01:40:20;;;;;;;20.67;2.90;;;3.90;99.90;;;;;;5093543;28;20584;-74
2022/01/20 01:42:50;;;;;;;15.73;2.70;;;3.90;99.90;;;;;;5084833;28;20286;-74
2022/01/20 01:45:20;;;;;;;19.57;3.00;;;3.90;99.90;;;;;;5093661;28;20213;-74
2022/01/20 01:47:48;;;;;;;19.17;2.57;;;3.90;99.90;;;;;;5094117;28;20598;-74
2022/01/20 01:50:16;;;;;;;17.23;2.80;;;3.90;99.90;;;;;;5086838;28;20202;-74
2022/01/20 01:52:43;;;;;;;17.63;3.00;;;3.90;99.90;;;;;;5081021;28;20656;-74
2022/01/20 01:55:11;;;;;;;18.47;3.00;;;3.90;99.90;;;;;;5082672;28;20194;-68
2022/01/20 01:57:38;;;;;;;16.67;2.90;;;4.00;99.90;;;;;;5074212;28;20694;-68
2022/01/20 02:00:08;;;;;;;18.97;2.90;;;4.00;99.90;;;;;;5073391;28;20295;-68
2022/01/20 02:02:36;;;;;;;16.33;3.80;;;4.10;99.90;;;;;;5094109;28;20206;-68
2022/01/20 02:52:40;;;;;;;17.57;2.73;;;4.30;99.90;;;;;;5088327;28;20704;-68
2022/01/20 02:55:08;;;;;;;14.97;2.33;;;4.30;99.90;;;;;;5085376;28;20517;-68
2022/01/20 02:57:35;;;;;;;14.10;2.23;;;4.30;99.90;;;;;;5076093;28;20206;-68
2022/01/20 03:00:02;;;;;;;11.87;2.30;;;4.20;99.90;;;;;;5071959;28;20306;-68
2022/01/20 03:02:29;;;;;;;11.60;2.60;;;4.20;99.90;;;;;;5083784;28;20210;-68
2022/01/20 03:04:56;;;;;;;12.37;1.83;;;4.10;99.90;;;;;;5071531;28;20206;-68
2022/01/20 03:07:23;;;;;;;6.53;1.63;;;4.10;99.90;;;;;;5088043;28;20230;-68
2022/01/20 03:09:52;;;;;;;10.03;1.53;;;4.00;99.90;;;;;;5093075;28;20210;-68
2022/01/20 03:12:19;;;;;;;6.87;1.43;;;4.00;99.90;;;;;;5092181;28;20266;-68
2022/01/20 03:14:46;;;;;;;7.80;2.03;;;4.00;99.90;;;;;;5091202;28;20263;-68
2022/01/20 03:17:14;;;;;;;5.20;1.40;;;4.00;99.90;;;;;;5091813;28;20587;-68
2022/01/20 03:19:41;;;;;;;11.47;1.90;;;4.00;99.90;;;;;;5091624;28;20278;-68
2022/01/20 03:22:08;;;;;;;7.90;1.97;;;4.00;99.90;;;;;;5091611;28;20251;-67
2022/01/20 03:24:35;;;;;;;8.33;2.30;;;4.10;99.90;;;;;;5080652;28;20206;-68
2022/01/20 03:27:04;;;;;;;7.80;2.00;;;4.20;99.90;;;;;;5089602;28;20709;-68
2022/01/20 03:29:31;;;;;;;12.10;1.97;;;4.30;99.90;;;;;;5091579;28;20225;-68
2022/01/20 03:31:58;;;;;;;10.17;2.40;;;4.40;99.90;;;;;;5091369;28;20259;-68
2022/01/20 03:34:25;;;;;;;8.37;1.83;;;4.30;99.90;;;;;;5091493;28;20705;-68
2022/01/20 03:36:53;;;;;;;9.27;2.10;;;4.30;99.90;;;;;;5086227;28;20628;-68
2022/01/20 03:39:20;;;;;;;6.93;1.70;;;4.20;99.90;;;;;;5091928;28;20238;-68
2022/01/20 03:41:47;;;;;;;14.43;3.53;;;4.10;99.90;;;;;;5086852;28;20202;-68
2022/01/20 03:44:17;;;;;;;8.67;1.63;;;4.10;99.90;;;;;;5080242;28;20290;-68
2022/01/20 03:46:44;;;;;;;8.07;1.87;;;4.10;99.90;;;;;;5091583;28;20212;-68
2022/01/20 03:49:25;;;;;;;7.33;1.50;;;4.00;99.90;;;;;;5091412;28;20206;-68
2022/01/20 03:51:52;;;;;;;7.27;1.50;;;4.00;99.90;;;;;;5091634;28;20597;-68
2022/01/20 03:54:19;;;;;;;8.50;1.60;;;4.00;99.90;;;;;;5086071;28;20202;-67
2022/01/20 03:56:46;;;;;;;6.83;1.60;;;3.90;99.90;;;;;;5079101;28;20240;-68
2022/01/20 03:59:13;;;;;;;6.80;1.63;;;3.90;99.90;;;;;;5083318;28;20563;-68
2022/01/20 04:01:41;;;;;;;7.90;1.67;;;3.90;99.90;;;;;;5088717;28;20229;-68
2022/01/20 04:04:08;;;;;;;7.80;1.70;;;3.90;99.90;;;;;;5101779;28;20213;-68
2022/01/20 04:06:35;;;;;;;7.53;1.53;;;3.90;99.90;;;;;;5090671;28;20202;-68
2022/01/20 04:09:03;;;;;;;6.03;1.50;;;3.90;99.90;;;;;;5091641;28;20205;-68
2022/01/20 04:11:31;;;;;;;2.30;0.93;;;3.90;99.90;;;;;;5091670;28;20260;-68
2022/01/20 04:14:00;;;;;;;4.07;1.13;;;3.80;99.90;;;;;;5090489;28;20210;-68
2022/01/20 04:16:35;;;;;;;3.80;1.17;;;3.80;99.90;;;;;;5091363;28;20259;-68
2022/01/20 04:19:07;;;;;;;5.50;1.23;;;3.80;99.90;;;;;;5090756;28;20209;-68
2022/01/20 04:21:36;;;;;;;4.17;1.37;;;3.80;99.90;;;;;;5088603;28;20691;-68
2022/01/20 04:24:04;;;;;;;4.07;1.30;;;3.80;99.90;;;;;;5089929;28;20197;-68
2022/01/20 04:26:33;;;;;;;5.43;1.17;;;3.70;99.90;;;;;;5089630;28;20205;-68
2022/01/20 04:29:00;;;;;;;7.87;1.50;;;3.70;99.90;;;;;;5091509;28;20285;-68
2022/01/20 04:31:30;;;;;;;7.17;1.40;;;3.70;99.90;;;;;;5086918;28;20259;-68
2022/01/20 04:33:58;;;;;;;4.97;1.13;;;3.70;99.90;;;;;;5085620;28;20213;-68
2022/01/20 04:36:28;;;;;;;4.33;0.93;;;3.70;99.90;;;;;;5079986;28;20201;-68
2022/01/20 04:38:55;;;;;;;6.90;1.73;;;3.70;99.90;;;;;;5091010;28;20254;-68
2022/01/20 04:41:23;;;;;;;5.53;1.17;;;3.80;99.90;;;;;;5091231;28;20740;-68
2022/01/20 04:43:51;;;;;;;7.27;1.47;;;3.80;99.90;;;;;;5091109;28;20209;-68
2022/01/20 04:46:25;;;;;;;9.07;1.43;;;3.80;99.90;;;;;;5091155;28;20213;-68
2022/01/20 04:49:12;;;;;;;7.07;1.30;;;3.80;99.90;;;;;;5091800;28;20846;-68
2022/01/20 04:57:16;;;;;;;9.70;1.33;;;3.70;99.90;;;;;;5061770;28;20228;-68
2022/01/20 04:59:44;;;;;;;5.70;1.27;;;3.70;99.90;;;;;;5089621;28;20216;-68
2022/01/20 05:02:11;;;;;;;6.53;1.53;;;3.60;99.90;;;;;;5091297;28;20264;-68
2022/01/20 05:04:39;;;;;;;4.00;1.10;;;3.70;99.90;;;;;;5090823;28;20267;-68
2022/01/20 05:07:09;;;;;;;7.80;1.30;;;3.70;99.90;;;;;;5087841;28;20212;-68
2022/01/20 05:09:37;;;;;;;5.07;1.53;;;3.60;99.90;;;;;;5091111;28;20247;-68
2022/01/20 05:12:08;;;;;;;3.60;1.23;;;3.60;99.90;;;;;;5091388;28;20226;-68
2022/01/20 05:14:35;;;;;;;11.77;2.90;;;3.60;99.90;;;;;;5090868;28;20213;-68
2022/01/20 05:17:02;;;;;;;5.97;1.47;;;3.60;99.90;;;;;;5091523;28;20198;-69
2022/01/20 05:19:31;;;;;;;9.20;1.53;;;3.50;99.90;;;;;;5091686;28;20278;-68
2022/01/20 05:21:59;;;;;;;10.20;2.43;;;3.50;99.90;;;;;;5091355;28;20282;-67
2022/01/20 05:24:28;;;;;;;5.50;1.23;;;3.40;99.90;;;;;;5090228;28;20202;-73
2022/01/20 05:26:57;;;;;;;7.73;1.53;;;3.40;99.90;;;;;;5090855;28;20251;-71
2022/01/20 05:29:24;;;;;;;13.03;1.70;;;3.40;99.90;;;;;;5091773;28;20208;-71
2022/01/20 05:31:52;;;;;;;9.90;2.03;;;3.40;99.90;;;;;;5091279;28;20206;-71
2022/01/20 05:34:20;;;;;;;7.47;1.73;;;3.40;99.90;;;;;;5090901;28;20198;-71
2022/01/20 05:36:48;;;;;;;9.70;1.73;;;3.30;99.90;;;;;;5091311;28;20234;-71
2022/01/20 05:39:15;;;;;;;8.90;1.50;;;3.30;99.90;;;;;;5091648;28;20198;-71
2022/01/20 05:41:44;;;;;;;11.33;1.63;;;3.40;99.90;;;;;;5091412;28;20221;-71
2022/01/20 05:44:11;;;;;;;9.07;1.57;;;3.40;99.90;;;;;;5090729;28;20202;-71
2022/01/20 05:46:44;;;;;;;6.27;1.40;;;3.40;99.90;;;;;;5091068;28;20198;-71
2022/01/20 05:49:11;;;;;;;9.53;1.70;;;3.40;99.90;;;;;;5091461;28;20201;-71
2022/01/20 05:51:38;;;;;;;10.00;2.13;;;3.40;99.90;;;;;;5091333;28;20206;-71
2022/01/20 05:54:05;;;;;;;9.77;2.57;;;3.40;99.90;;;;;;5094378;28;20194;-71
2022/01/20 05:56:33;;;;;;;8.43;1.57;;;3.40;99.90;;;;;;5094906;28;20628;-71
2022/01/20 05:59:02;;;;;;;8.50;2.10;;;3.40;99.90;;;;;;5094874;28;20198;-71
2022/01/20 06:01:32;;;;;;;13.13;1.63;;;3.40;99.90;;;;;;5094563;28;20218;-71
2022/01/20 06:03:59;;;;;;;7.87;1.60;;;3.40;99.90;;;;;;5094475;28;20205;-71
2022/01/20 06:06:26;;;;;;;12.63;2.37;;;3.40;99.90;;;;;;5094694;28;20600;-71
2022/01/20 06:08:53;;;;;;;11.93;2.40;;;3.20;99.90;;;;;;5094733;28;20617;-71
2022/01/20 06:11:21;;;;;;;7.50;2.00;;;2.90;99.90;;;;;;5094508;28;20259;-71
2022/01/20 06:13:48;;;;;;;9.60;1.60;;;2.70;99.90;;;;;;5094035;28;20725;-71
2022/01/20 06:16:17;;;;;;;9.50;1.93;;;2.70;99.90;;;;;;5094616;28;20217;-70
2022/01/20 06:18:44;;;;;;;6.17;1.53;;;2.30;99.90;;;;;;5094650;28;20546;-70
2022/01/20 06:21:11;;;;;;;5.50;1.77;;;2.10;99.90;;;;;;5094393;28;20253;-70
2022/01/20 06:23:40;;;;;;;10.17;1.80;;;2.00;99.90;;;;;;5093743;28;20618;-70
2022/01/20 06:26:07;;;;;;;5.80;1.40;;;2.00;99.90;;;;;;5094779;28;20198;-70
2022/01/20 06:28:35;;;;;;;12.07;2.20;;;1.90;99.90;;;;;;5094365;28;20244;-70
2022/01/20 06:31:02;;;;;;;11.23;1.97;;;1.90;99.90;;;;;;5094168;28;20233;-70
2022/01/20 06:33:30;;;;;;;7.63;1.77;;;2.00;99.90;;;;;;5094125;28;20565;-70
2022/01/20 06:35:58;;;;;;;4.47;1.27;;;2.00;99.90;;;;;;5093911;28;20760;-70
2022/01/20 06:38:26;;;;;;;5.63;1.20;;;2.00;99.90;;;;;;5094036;28;20296;-70
2022/01/20 06:40:53;;;;;;;8.53;1.40;;;2.00;99.90;;;;;;5094048;28;20229;-70
2022/01/20 06:43:21;;;;;;;3.53;1.37;;;2.00;99.90;;;;;;5094121;28;20247;-70
2022/01/20 06:45:48;;;;;;;3.10;1.23;;;1.90;99.90;;;;;;5092538;28;20202;-70
2022/01/20 06:48:16;;;;;;;8.97;1.57;;;1.90;99.90;;;;;;5097068;27;20700;-70
2022/01/20 06:50:44;;;;;;;6.10;1.90;;;1.90;99.90;;;;;;5092209;28;20262;-70
2022/01/20 06:53:11;;;;;;;8.67;1.53;;;1.90;99.90;;;;;;5093146;28;20206;-70
2022/01/20 06:55:38;;;;;;;11.17;2.00;;;2.00;99.90;;;;;;5092764;28;20202;-70
2022/01/20 06:58:05;;;;;;;13.47;2.27;;;2.10;99.90;;;;;;5092807;28;20202;-70
2022/01/20 07:00:33;;;;;;;10.87;2.40;;;2.10;99.90;;;;;;5093099;28;20799;-70
2022/01/20 07:03:00;;;;;;;9.23;2.13;;;2.10;99.90;;;;;;5092739;28;20190;-70
2022/01/20 07:05:27;;;;;;;13.50;2.37;;;2.10;99.90;;;;;;5091585;28;20209;-71
2022/01/20 07:07:55;;;;;;;11.87;2.50;;;2.20;99.90;;;;;;5093473;28;20644;-70
2022/01/20 07:10:23;;;;;;;12.77;1.70;;;2.20;99.90;;;;;;5092830;28;20202;-70
2022/01/20 07:12:51;;;;;;;5.00;1.73;;;2.20;99.90;;;;;;5093307;28;20233;-70
2022/01/20 07:15:19;;;;;;;12.87;1.77;;;2.20;99.90;;;;;;5091953;28;20245;-70
2022/01/20 07:17:47;;;;;;;18.27;2.17;;;2.30;99.90;;;;;;5093091;28;20638;-70
2022/01/20 07:20:15;;;;;;;13.77;1.90;;;2.30;99.90;;;;;;5092066;28;20663;-70
2022/01/20 07:22:42;;;;;;;12.37;1.80;;;2.30;99.90;;;;;;5093137;28;20675;-70
2022/01/20 07:25:11;;;;;;;7.33;1.33;;;2.30;99.90;;;;;;5092443;28;20228;-70
2022/01/20 07:27:38;;;;;;;10.73;2.17;;;2.40;99.90;;;;;;5093015;28;20209;-70
2022/01/20 07:30:06;;;;;;;12.47;1.60;;;2.40;99.90;;;;;;5092948;28;20248;-70
2022/01/20 07:32:33;;;;;;;14.47;1.97;;;2.20;99.90;;;;;;5092840;28;20262;-70
2022/01/20 07:35:00;;;;;;;11.20;2.07;;;2.30;99.90;;;;;;5091084;28;20251;-70
2022/01/20 07:37:27;;;;;;;12.50;2.30;;;2.30;99.90;;;;;;5092434;28;20205;-70
2022/01/20 07:39:55;;;;;;;10.37;2.73;;;2.30;99.90;;;;;;5092957;28;20318;-70
2022/01/20 07:42:23;;;;;;;9.73;1.80;;;2.30;99.90;;;;;;5091948;28;20329;-70
2022/01/20 07:44:50;;;;;;;13.27;2.03;;;2.30;99.90;;;;;;5091509;28;20202;-70
2022/01/20 07:47:17;;;;;;;7.90;1.40;;;2.30;99.90;;;;;;5091990;28;20201;-70
2022/01/20 07:49:44;;;;;;;9.00;1.87;;;2.30;99.90;;;;;;5092768;28;20197;-70
2022/01/20 07:52:12;;;;;;;9.17;1.90;;;2.40;99.90;;;;;;5091884;28;20255;-70
2022/01/20 07:54:39;;;;;;;15.50;2.50;;;2.40;99.90;;;;;;5091901;28;20208;-70
2022/01/20 07:57:07;;;;;;;11.63;1.77;;;2.30;99.90;;;;;;5092217;28;20209;-70
2022/01/20 07:59:36;;;;;;;15.23;1.90;;;2.30;99.90;;;;;;5092531;28;20872;-70
2022/01/20 08:02:03;;;;;;;6.30;1.57;;;2.30;99.90;;;;;;5091795;28;20225;-70
2022/01/20 08:04:30;;;;;;;15.60;2.57;;;2.20;99.90;;;;;;5091634;28;20213;-70
2022/01/20 08:06:57;;;;;;;5.97;2.00;;;2.20;99.90;;;;;;5091806;28;20227;-70
2022/01/20 08:09:24;;;;;;;14.57;2.37;;;2.20;99.90;;;;;;5092452;28;20198;-70
2022/01/20 08:11:51;;;;;;;10.30;1.80;;;2.20;99.90;;;;;;5091782;28;20209;-71
2022/01/20 08:14:18;;;;;;;11.53;2.10;;;2.10;99.90;;;;;;5091475;28;20228;-71
2022/01/20 08:16:47;;;;;;;15.60;2.10;;;2.10;99.90;;;;;;5091156;28;20261;-70
2022/01/20 08:19:14;;;;;;;7.63;1.60;;;2.10;99.90;;;;;;5095717;28;20580;-70
2022/01/20 08:21:41;;;;;;;9.60;1.93;;;2.20;99.90;;;;;;5092583;28;20274;-69
2022/01/20 08:24:08;;;;;;;14.13;2.50;;;2.40;99.90;;;;;;5091266;28;20204;-69
2022/01/20 08:26:35;;;;;;;8.73;1.60;;;2.50;99.90;;;;;;5091933;28;20205;-69
2022/01/20 08:29:02;;;;;;;14.10;2.20;;;2.50;99.90;;;;;;5091614;28;20212;-69
2022/01/20 08:31:31;;;;;;;13.97;1.93;;;2.50;99.90;;;;;;5091399;28;20238;-69
2022/01/20 08:33:59;;;;;;;12.63;2.50;;;2.50;99.90;;;;;;5091385;28;20214;-69
2022/01/20 08:36:26;;;;;;;10.20;2.63;;;2.50;99.90;;;;;;5091990;28;20271;-69
2022/01/20 08:38:53;;;;;;;9.23;2.30;;;2.60;99.90;;;;;;5091651;28;20201;-69
2022/01/20 08:41:20;;;;;;;14.83;2.13;;;2.80;99.90;;;;;;5090695;28;20217;-69
2022/01/20 08:43:47;;;;;;;7.20;1.70;;;2.80;99.90;;;;;;5090856;28;20595;-69
2022/01/20 08:46:19;;;;;;;10.40;2.23;;;2.80;99.90;;;;;;5091859;28;20201;-70
2022/01/20 08:48:46;;;;;;;12.53;1.77;;;2.90;99.90;;;;;;5091683;28;20205;-70
2022/01/20 08:51:15;;;;;;;10.37;2.53;;;2.80;99.90;;;;;;5091754;28;20254;-69
2022/01/20 08:53:42;;;;;;;10.60;2.10;;;2.80;99.90;;;;;;5090970;28;20202;-69
2022/01/20 08:56:09;;;;;;;9.87;1.60;;;2.80;99.90;;;;;;5090936;28;20198;-69
2022/01/20 08:58:36;;;;;;;12.60;2.37;;;2.70;99.90;;;;;;5090650;28;20255;-69
2022/01/20 09:01:04;;;;;;;9.93;2.43;;;2.60;99.90;;;;;;5090512;28;20250;-67
2022/01/20 09:03:33;;;;;;;11.27;2.20;;;2.60;99.90;;;;;;5090797;28;20208;-68
2022/01/20 09:06:02;;;;;;;12.30;2.83;;;2.60;99.90;;;;;;5091013;28;20224;-68
2022/01/20 09:08:31;;;;;;;11.97;2.00;;;2.70;99.90;;;;;;5091234;28;20209;-68
2022/01/20 09:10:58;;;;;;;8.27;1.77;;;2.70;99.90;;;;;;5090467;28;20197;-68
2022/01/20 09:16:09;;;;;;;11.97;2.10;;;2.70;99.90;;;;;;5090863;28;20654;-68
2022/01/20 09:18:36;;;;;;;13.73;3.60;;;2.70;99.90;;;;;;5091040;28;20259;-68
2022/01/20 09:21:03;;;;;;;10.73;2.27;;;2.60;99.90;;;;;;5090494;28;20600;-68
2022/01/20 09:23:32;;;;;;;12.83;2.03;;;2.60;99.90;;;;;;5090936;28;20233;-68
2022/01/20 09:25:59;;;;;;;11.03;2.60;;;2.80;99.90;;;;;;5090126;28;20640;-68
2022/01/20 09:28:27;;;;;;;9.00;1.93;;;2.90;99.90;;;;;;5094517;28;20664;-68
2022/01/20 09:30:57;;;;;;;8.60;2.30;;;2.90;99.90;;;;;;5095319;28;20207;-68
2022/01/20 09:33:28;;;;;;;7.57;2.10;;;3.10;99.90;;;;;;5094484;28;20202;-68
2022/01/20 09:35:57;;;;;;;9.17;2.03;;;3.00;99.90;;;;;;5094042;28;20552;-68
2022/01/20 09:38:24;;;;;;;10.20;1.83;;;2.90;99.90;;;;;;5095162;28;20201;-68
2022/01/20 09:40:53;;;;;;;11.97;1.73;;;3.20;99.90;;;;;;5094434;28;20667;-69
2022/01/20 09:43:20;;;;;;;8.43;2.13;;;3.70;99.90;;;;;;5094773;28;20933;-68
2022/01/20 09:45:51;;;;;;;11.27;1.70;;;3.30;99.90;;;;;;5094398;28;20243;-68
2022/01/20 09:48:19;;;;;;;8.93;1.93;;;3.30;99.90;;;;;;5095121;28;20209;-68
2022/01/20 09:50:46;;;;;;;9.60;1.87;;;3.10;99.90;;;;;;5094801;28;20841;-68
2022/01/20 09:53:14;;;;;;;13.63;2.00;;;3.10;99.90;;;;;;5094266;28;20205;-68
2022/01/20 09:55:41;;;;;;;12.93;2.17;;;2.90;99.90;;;;;;5093702;28;20205;-68
2022/01/20 09:58:11;;;;;;;14.23;3.17;;;2.70;99.90;;;;;;5093840;28;20220;-68
2022/01/20 10:00:39;;;;;;;12.93;3.53;;;2.60;99.90;;;;;;5094805;28;20202;-68
2022/01/20 10:03:09;;;;;;;14.13;3.00;;;2.70;99.90;;;;;;5094398;28;20651;-68
2022/01/20 10:05:38;;;;;;;8.10;2.10;;;2.70;99.90;;;;;;5093732;28;20704;-68
2022/01/20 10:08:13;;;;;;;6.23;1.57;;;2.70;99.90;;;;;;5094513;28;20251;-68
2022/01/20 10:10:46;;;;;;;8.97;1.63;;;2.70;99.90;;;;;;5093654;28;20300;-68
2022/01/20 10:13:16;;;;;;;6.80;1.63;;;2.80;99.90;;;;;;5093698;28;20263;-68
2022/01/20 10:15:44;;;;;;;9.03;1.60;;;2.90;99.90;;;;;;5093553;28;20250;-68
2022/01/20 10:18:13;;;;;;;6.93;1.87;;;3.00;99.90;;;;;;5094769;28;20213;-68
2022/01/20 10:20:52;;;;;;;8.77;1.90;;;3.00;99.90;;;;;;5094467;28;20197;-68
2022/01/20 10:23:35;;;;;;;9.77;2.20;;;3.00;99.90;;;;;;5093926;28;20229;-68
2022/01/20 10:26:07;;;;;;;11.73;1.80;;;2.90;99.90;;;;;;5092264;28;20209;-68
2022/01/20 10:28:51;;;;;;;10.10;2.30;;;2.90;99.90;;;;;;5093368;28;20202;-68
2022/01/20 10:31:20;;;;;;;13.20;2.17;;;2.90;99.90;;;;;;5093493;28;20557;-68
2022/01/20 10:33:47;;;;;;;11.47;2.00;;;3.00;99.90;;;;;;5093507;28;20892;-68
2022/01/20 10:36:15;;;;;;;6.70;1.90;;;3.00;99.90;;;;;;5094078;28;20202;-68
2022/01/20 10:38:52;;;;;;;11.20;2.20;;;3.00;99.90;;;;;;5093827;28;20194;-68
2022/01/20 10:41:31;;;;;;;17.37;2.53;;;3.00;99.90;;;;;;5093066;28;20194;-68
2022/01/20 10:44:09;;;;;;;8.50;2.93;;;3.00;99.90;;;;;;5092656;28;20486;-68
2022/01/20 10:46:50;;;;;;;10.27;1.87;;;3.00;99.90;;;;;;5093892;28;20220;-68
2022/01/20 10:49:19;;;;;;;14.77;2.67;;;3.00;99.90;;;;;;5091691;28;20204;-68
2022/01/20 10:52:01;;;;;;;12.10;2.20;;;3.00;99.90;;;;;;5093026;28;20204;-68
2022/01/20 10:54:35;;;;;;;11.97;2.93;;;3.10;99.90;;;;;;5093111;28;20202;-68
2022/01/20 10:57:03;;;;;;;8.57;2.17;;;3.30;99.90;;;;;;5090943;28;20193;-68
2022/01/20 10:59:33;;;;;;;9.43;2.00;;;3.40;99.90;;;;;;5093623;28;20778;-68
2022/01/20 11:02:06;;;;;;;10.20;2.17;;;3.70;99.90;;;;;;5093688;28;20573;-68
2022/01/20 11:04:34;;;;;;;13.27;2.00;;;4.10;99.90;;;;;;5092244;28;20258;-68
2022/01/20 11:07:04;;;;;;;16.20;2.20;;;4.10;99.90;;;;;;5093007;28;20209;-68
2022/01/20 11:09:34;;;;;;;9.27;2.10;;;3.90;99.90;;;;;;5090832;28;20279;-68
2022/01/20 11:12:03;;;;;;;11.97;2.30;;;3.60;99.90;;;;;;5092805;28;20206;-68
2022/01/20 11:14:33;;;;;;;12.43;2.37;;;3.40;99.90;;;;;;5093180;28;20239;-68
2022/01/20 11:17:02;;;;;;;11.07;2.47;;;3.40;99.90;;;;;;5093624;28;20263;-68
2022/01/20 11:19:35;;;;;;;14.80;3.13;;;3.30;99.90;;;;;;5093790;28;20220;-68
2022/01/20 11:22:08;;;;;;;8.53;2.20;;;3.10;99.90;;;;;;5093142;28;20663;-68
2022/01/20 11:24:36;;;;;;;9.03;2.30;;;2.90;99.90;;;;;;5092647;28;20198;-68
2022/01/20 11:27:04;;;;;;;12.10;2.90;;;2.60;99.90;;;;;;5093186;28;20255;-68
2022/01/20 11:29:47;;;;;;;9.17;2.50;;;2.50;99.90;;;;;;5093231;28;20197;-68
2022/01/20 11:32:20;;;;;;;11.80;2.47;;;2.40;99.90;;;;;;5091660;28;20233;-68
2022/01/20 11:34:58;;;;;;;7.37;1.93;;;2.20;99.90;;;;;;5092396;28;20198;-68
2022/01/20 11:37:25;;;;;;;14.60;2.83;;;2.20;99.90;;;;;;5092779;28;20644;-68
2022/01/20 11:39:53;;;;;;;7.33;2.27;;;2.10;99.90;;;;;;5093070;28;20197;-68
2022/01/20 11:42:26;;;;;;;9.70;2.53;;;2.20;99.90;;;;;;5092717;28;20218;-68
2022/01/20 11:44:54;;;;;;;9.23;3.07;;;2.10;99.90;;;;;;5092168;28;20202;-68
2022/01/20 11:47:31;;;;;;;21.37;6.47;;;2.10;99.90;;;;;;5092792;28;20197;-68
2022/01/20 11:49:59;;;;;;;14.50;3.27;;;2.20;99.90;;;;;;5090960;28;20209;-68
2022/01/20 11:52:28;;;;;;;10.53;2.40;;;2.30;99.90;;;;;;5092800;28;20648;-68
2022/01/20 11:54:55;;;;;;;10.03;2.53;;;2.30;99.90;;;;;;5092201;28;20201;-68
2022/01/20 11:57:28;;;;;;;11.93;2.57;;;2.40;99.90;;;;;;5092678;28;20233;-68
2022/01/20 12:00:00;;;;;;;9.50;2.53;;;2.40;99.90;;;;;;5092618;28;20216;-68
2022/01/20 12:02:32;;;;;;;14.20;3.43;;;2.50;99.90;;;;;;5092664;28;20752;-69
2022/01/20 12:05:00;;;;;;;11.90;3.10;;;3.10;99.90;;;;;;5091732;28;20209;-68
2022/01/20 12:07:29;;;;;;;16.63;3.07;;;3.70;99.90;;;;;;5092650;28;20598;-68
2022/01/20 12:10:07;;;;;;;14.07;2.97;;;3.40;99.90;;;;;;5092324;28;20209;-68
2022/01/20 12:12:34;;;;;;;11.93;2.90;;;3.70;99.90;;;;;;5092186;28;20198;-68
2022/01/20 12:15:11;;;;;;;10.97;2.77;;;3.40;99.90;;;;;;5092025;28;20576;-68
2022/01/20 12:17:41;;;;;;;12.07;2.63;;;4.10;99.90;;;;;;5092160;28;20262;-68
2022/01/20 12:20:11;;;;;;;14.50;2.87;;;4.20;99.90;;;;;;5092568;28;20229;-68
2022/01/20 12:22:42;;;;;;;15.07;2.90;;;4.00;99.90;;;;;;5092251;28;20225;-68
2022/01/20 12:25:16;;;;;;;12.83;2.70;;;4.10;99.90;;;;;;5091433;28;20255;-69
2022/01/20 12:27:43;;;;;;;9.53;2.07;;;4.20;99.90;;;;;;5092108;28;20202;-68
2022/01/20 12:30:27;;;;;;;10.67;2.03;;;4.20;99.90;;;;;;5092219;28;20194;-68
2022/01/20 12:33:02;;;;;;;11.53;2.87;;;4.00;99.90;;;;;;5090397;28;20201;-68
2022/01/20 12:35:38;;;;;;;8.60;2.17;;;3.90;99.90;;;;;;5091214;28;20201;-68
2022/01/20 12:38:19;;;;;;;9.23;1.87;;;3.90;99.90;;;;;;5092192;28;20201;-68
2022/01/20 12:40:49;;;;;;;11.07;3.10;;;3.90;99.90;;;;;;5091912;28;20270;-68
2022/01/20 12:43:18;;;;;;;11.93;4.00;;;4.20;99.90;;;;;;5091914;28;20214;-68
2022/01/20 12:45:58;;;;;;;9.93;1.90;;;4.20;99.90;;;;;;5091520;28;20202;-68
2022/01/20 12:48:25;;;;;;;6.80;2.37;;;4.00;99.90;;;;;;5091750;28;20255;-68
2022/01/20 12:50:59;;;;;;;17.07;3.90;;;3.90;99.90;;;;;;5091970;28;20202;-68
2022/01/20 12:53:34;;;;;;;6.90;1.57;;;3.80;99.90;;;;;;5091789;28;20695;-68
2022/01/20 12:56:01;;;;;;;15.27;3.00;;;3.70;99.90;;;;;;5090439;28;20209;-68
2022/01/20 12:58:28;;;;;;;6.53;1.67;;;3.00;99.90;;;;;;5097059;28;20663;-68
2022/01/20 13:01:02;;;;;;;11.17;2.20;;;2.60;99.90;;;;;;5091554;28;20209;-68
2022/01/20 13:03:37;;;;;;;13.23;3.17;;;2.70;99.90;;;;;;5094285;28;20301;-68
2022/01/20 13:06:06;;;;;;;9.97;2.60;;;2.60;99.90;;;;;;5095034;28;20204;-68
2022/01/20 13:08:38;;;;;;;8.43;1.60;;;2.60;99.90;;;;;;5094534;28;20263;-68
2022/01/20 13:11:08;;;;;;;6.17;1.50;;;2.60;99.90;;;;;;5094842;28;20205;-68
2022/01/20 13:13:35;;;;;;;7.50;1.60;;;2.60;99.90;;;;;;5094936;28;20201;-68
2022/01/20 13:16:15;;;;;;;7.90;2.00;;;2.60;99.90;;;;;;5095129;28;20686;-68
2022/01/20 13:18:53;;;;;;;5.53;1.87;;;3.30;99.90;;;;;;5095534;28;20209;-68
2022/01/20 13:21:22;;;;;;;5.57;2.00;;;3.10;99.90;;;;;;5094308;28;20243;-68
2022/01/20 13:23:55;;;;;;;14.00;2.13;;;3.40;99.90;;;;;;5094587;28;20275;-68
2022/01/20 13:26:23;;;;;;;4.57;1.43;;;3.20;99.90;;;;;;5093025;28;20202;-68
2022/01/20 13:29:01;;;;;;;7.17;2.43;;;3.10;99.90;;;;;;5074655;28;20198;-68
2022/01/20 13:31:30;;;;;;;6.53;1.53;;;3.40;99.90;;;;;;5082056;28;20254;-68
2022/01/20 13:34:00;;;;;;;12.00;2.60;;;3.30;99.90;;;;;;5089042;28;20209;-68
2022/01/20 13:36:40;;;;;;;5.27;2.00;;;3.60;99.90;;;;;;5094665;28;20255;-69
2022/01/20 13:39:07;;;;;;;10.43;2.00;;;3.40;99.90;;;;;;5093249;28;20205;-68
2022/01/20 13:41:34;;;;;;;8.03;2.47;;;3.30;99.90;;;;;;5094815;28;20201;-68
2022/01/20 13:47:05;;;;;;;9.60;2.33;;;3.40;99.90;;;;;;5095063;28;20334;-68
2022/01/20 13:49:32;;;;;;;8.77;1.90;;;3.40;99.90;;;;;;5091367;28;20613;-69
2022/01/20 13:52:01;;;;;;;10.47;2.13;;;3.30;99.90;;;;;;5089483;28;20202;-68
2022/01/20 13:54:42;;;;;;;7.27;1.97;;;3.20;99.90;;;;;;5090644;28;20259;-68
2022/01/20 13:57:09;;;;;;;9.07;2.13;;;2.90;99.90;;;;;;5093117;28;20209;-68
2022/01/20 13:59:47;;;;;;;9.27;2.17;;;2.60;99.90;;;;;;5090806;28;20194;-68
2022/01/20 14:02:15;;;;;;;13.77;3.00;;;2.40;99.90;;;;;;5091277;28;20193;-69
2022/01/20 14:04:42;;;;;;;7.60;2.10;;;2.40;99.90;;;;;;5091855;28;20226;-69
2022/01/20 14:07:10;;;;;;;9.83;2.03;;;2.40;99.90;;;;;;5095426;28;20208;-68
2022/01/20 14:09:37;;;;;;;8.57;2.07;;;2.40;99.90;;;;;;5098678;28;20189;-68
2022/01/20 14:12:05;;;;;;;8.77;2.50;;;2.50;99.90;;;;;;5100994;28;20201;-69
2022/01/20 14:14:32;;;;;;;8.70;2.37;;;2.60;99.90;;;;;;5093965;28;20200;-69
2022/01/20 14:17:06;;;;;;;8.00;3.60;;;2.50;99.90;;;;;;5093048;28;20205;-69
2022/01/20 14:19:42;;;;;;;10.60;2.57;;;2.60;99.90;;;;;;5106378;28;20209;-69
2022/01/20 14:22:10;;;;;;;10.50;2.13;;;2.60;99.90;;;;;;5092126;28;20232;-69
2022/01/20 14:24:37;;;;;;;9.23;1.97;;;2.70;99.90;;;;;;5094556;28;20278;-68